sensor_id;sensor_type;location;lat;lon;timestamp;pressure;altitude;pressure_sealevel;temperature;humidity
46876;BME280;32866;50.160;14.768;2024-03-22T00:00:55;99930.19;;;6.13;100.00
46876;BME280;32866;50.160;14.768;2024-03-22T00:03:22;99933.69;;;6.10;100.00
46876;BME280;32866;50.160;14.768;2024-03-22T00:05:47;99995.44;;;6.39;100.00
46876;BME280;32866;50.160;14.768;2024-03-22T00:08:13;99946.94;;;5.90;100.00
46876;BME280;32866;50.160;14.768;2024-03-22T00:10:39;99958.59;;;6.02;100.00
46876;BME280;32866;50.160;14.768;2024-03-22T00:13:05;99995.47;;;6.24;100.00
46876;BME280;32866;50.160;14.768;2024-03-22T00:15:31;99992.31;;;6.37;100.00
46876;BME280;32866;50.160;14.768;2024-03-22T00:17:57;99939.97;;;5.97;100.00
46876;BME280;32866;50.160;14.768;2024-03-22T00:20:23;99933.28;;;6.19;100.00
46876;BME280;32866;50.160;14.768;2024-03-22T00:22:49;99980.81;;;6.85;100.00
46876;BME280;32866;50.160;14.768;2024-03-22T00:25:15;99934.66;;;6.56;100.00
46876;BME280;32866;50.160;14.768;2024-03-22T00:27:41;99974.94;;;6.90;100.00
46876;BME280;32866;50.160;14.768;2024-03-22T00:30:08;99972.19;;;6.94;100.00
46876;BME280;32866;50.160;14.768;2024-03-22T00:32:34;99976.09;;;6.93;100.00
46876;BME280;32866;50.160;14.768;2024-03-22T00:35:00;99969.84;;;6.99;100.00
46876;BME280;32866;50.160;14.768;2024-03-22T00:37:26;99941.13;;;6.84;100.00
46876;BME280;32866;50.160;14.768;2024-03-22T00:39:52;99941.91;;;6.84;100.00
46876;BME280;32866;50.160;14.768;2024-03-22T00:42:18;99905.09;;;6.58;100.00
46876;BME280;32866;50.160;14.768;2024-03-22T00:44:44;99948.47;;;6.94;100.00
46876;BME280;32866;50.160;14.768;2024-03-22T00:47:10;99917.06;;;6.72;100.00
46876;BME280;32866;50.160;14.768;2024-03-22T00:49:36;99951.59;;;6.93;100.00
46876;BME280;32866;50.160;14.768;2024-03-22T00:52:02;99943.47;;;6.78;100.00
46876;BME280;32866;50.160;14.768;2024-03-22T00:54:28;99954.63;;;7.02;100.00
46876;BME280;32866;50.160;14.768;2024-03-22T00:56:54;99962.78;;;7.05;100.00
46876;BME280;32866;50.160;14.768;2024-03-22T00:59:20;99903.91;;;6.63;100.00
46876;BME280;32866;50.160;14.768;2024-03-22T01:01:46;99963.09;;;7.15;100.00
46876;BME280;32866;50.160;14.768;2024-03-22T01:04:12;99952.22;;;7.15;100.00
46876;BME280;32866;50.160;14.768;2024-03-22T01:06:38;99956.47;;;7.19;100.00
46876;BME280;32866;50.160;14.768;2024-03-22T01:09:06;99906.78;;;6.94;100.00
46876;BME280;32866;50.160;14.768;2024-03-22T01:11:32;99906.00;;;6.97;100.00
46876;BME280;32866;50.160;14.768;2024-03-22T01:13:58;99954.84;;;7.29;100.00
46876;BME280;32866;50.160;14.768;2024-03-22T01:16:24;99947.00;;;7.35;100.00
46876;BME280;32866;50.160;14.768;2024-03-22T01:18:50;99955.50;;;7.40;100.00
46876;BME280;32866;50.160;14.768;2024-03-22T01:21:16;99946.97;;;7.38;100.00
46876;BME280;32866;50.160;14.768;2024-03-22T01:23:43;99950.22;;;7.19;100.00
46876;BME280;32866;50.160;14.768;2024-03-22T01:26:09;99917.97;;;7.10;100.00
46876;BME280;32866;50.160;14.768;2024-03-22T01:28:35;99897.41;;;7.02;100.00
46876;BME280;32866;50.160;14.768;2024-03-22T01:31:01;99952.75;;;7.48;100.00
46876;BME280;32866;50.160;14.768;2024-03-22T01:33:27;99893.06;;;7.08;100.00
46876;BME280;32866;50.160;14.768;2024-03-22T01:35:53;99959.34;;;7.47;100.00
46876;BME280;32866;50.160;14.768;2024-03-22T01:38:19;99918.34;;;7.16;100.00
46876;BME280;32866;50.160;14.768;2024-03-22T01:40:45;99956.94;;;7.56;100.00
46876;BME280;32866;50.160;14.768;2024-03-22T01:43:11;99953.03;;;7.57;100.00
46876;BME280;32866;50.160;14.768;2024-03-22T01:45:37;99910.50;;;7.21;100.00
46876;BME280;32866;50.160;14.768;2024-03-22T01:48:03;99924.00;;;7.36;100.00
46876;BME280;32866;50.160;14.768;2024-03-22T01:50:29;99949.47;;;7.64;100.00
46876;BME280;32866;50.160;14.768;2024-03-22T01:52:56;99952.19;;;7.64;100.00
46876;BME280;32866;50.160;14.768;2024-03-22T01:55:23;99943.25;;;7.63;100.00
46876;BME280;32866;50.160;14.768;2024-03-22T01:57:51;99947.13;;;7.62;100.00
46876;BME280;32866;50.160;14.768;2024-03-22T02:00:19;99945.22;;;7.63;100.00
46876;BME280;32866;50.160;14.768;2024-03-22T02:02:45;99928.63;;;7.42;100.00
46876;BME280;32866;50.160;14.768;2024-03-22T02:05:15;99935.94;;;7.53;100.00
46876;BME280;32866;50.160;14.768;2024-03-22T02:07:42;99942.56;;;7.52;100.00
46876;BME280;32866;50.160;14.768;2024-03-22T02:10:08;99913.25;;;7.63;100.00
46876;BME280;32866;50.160;14.768;2024-03-22T02:12:37;99852.09;;;7.19;100.00
46876;BME280;32866;50.160;14.768;2024-03-22T02:15:03;99872.28;;;7.25;100.00
46876;BME280;32866;50.160;14.768;2024-03-22T02:17:29;99912.13;;;7.57;100.00
46876;BME280;32866;50.160;14.768;2024-03-22T02:19:55;99847.91;;;7.11;100.00
46876;BME280;32866;50.160;14.768;2024-03-22T02:22:21;99900.97;;;7.44;100.00
46876;BME280;32866;50.160;14.768;2024-03-22T02:24:47;99832.78;;;7.02;100.00
46876;BME280;32866;50.160;14.768;2024-03-22T02:27:13;99851.31;;;7.18;100.00
46876;BME280;32866;50.160;14.768;2024-03-22T02:29:39;99892.00;;;7.43;100.00
46876;BME280;32866;50.160;14.768;2024-03-22T02:32:05;99867.19;;;7.27;100.00
46876;BME280;32866;50.160;14.768;2024-03-22T02:34:31;99872.94;;;7.40;100.00
46876;BME280;32866;50.160;14.768;2024-03-22T02:36:57;99873.66;;;7.48;100.00
46876;BME280;32866;50.160;14.768;2024-03-22T02:39:23;99869.72;;;7.49;100.00
46876;BME280;32866;50.160;14.768;2024-03-22T02:41:51;99803.94;;;7.05;100.00
46876;BME280;32866;50.160;14.768;2024-03-22T02:44:17;99833.44;;;7.17;100.00
46876;BME280;32866;50.160;14.768;2024-03-22T02:46:43;99854.84;;;7.57;100.00
46876;BME280;32866;50.160;14.768;2024-03-22T02:49:09;99831.63;;;7.41;100.00
46876;BME280;32866;50.160;14.768;2024-03-22T02:51:35;99810.66;;;7.35;100.00
46876;BME280;32866;50.160;14.768;2024-03-22T02:54:01;99796.84;;;7.15;100.00
46876;BME280;32866;50.160;14.768;2024-03-22T02:56:39;99834.59;;;7.58;100.00
46876;BME280;32866;50.160;14.768;2024-03-22T02:59:05;99847.44;;;7.57;100.00
46876;BME280;32866;50.160;14.768;2024-03-22T03:01:31;99814.56;;;7.34;100.00
46876;BME280;32866;50.160;14.768;2024-03-22T03:03:57;99816.19;;;7.28;100.00
46876;BME280;32866;50.160;14.768;2024-03-22T03:06:23;99786.84;;;7.04;100.00
46876;BME280;32866;50.160;14.768;2024-03-22T03:08:50;99789.88;;;7.10;100.00
46876;BME280;32866;50.160;14.768;2024-03-22T03:11:16;99837.81;;;7.49;100.00
46876;BME280;32866;50.160;14.768;2024-03-22T03:13:42;99784.47;;;7.06;100.00
46876;BME280;32866;50.160;14.768;2024-03-22T03:16:08;99796.16;;;7.03;100.00
46876;BME280;32866;50.160;14.768;2024-03-22T03:18:34;99849.97;;;7.41;100.00
46876;BME280;32866;50.160;14.768;2024-03-22T03:21:00;99832.81;;;7.40;100.00
46876;BME280;32866;50.160;14.768;2024-03-22T03:23:26;99793.09;;;7.01;100.00
46876;BME280;32866;50.160;14.768;2024-03-22T03:25:52;99820.50;;;7.25;100.00
46876;BME280;32866;50.160;14.768;2024-03-22T03:28:18;99819.25;;;7.33;100.00
46876;BME280;32866;50.160;14.768;2024-03-22T03:30:44;99771.00;;;6.92;100.00
46876;BME280;32866;50.160;14.768;2024-03-22T03:33:10;99760.47;;;6.94;100.00
46876;BME280;32866;50.160;14.768;2024-03-22T03:35:36;99748.00;;;6.93;100.00
46876;BME280;32866;50.160;14.768;2024-03-22T03:38:03;99767.56;;;6.84;100.00
46876;BME280;32866;50.160;14.768;2024-03-22T03:40:29;99801.56;;;7.11;100.00
46876;BME280;32866;50.160;14.768;2024-03-22T03:42:55;99756.78;;;6.70;100.00
46876;BME280;32866;50.160;14.768;2024-03-22T03:45:21;99747.44;;;6.71;100.00
46876;BME280;32866;50.160;14.768;2024-03-22T03:47:47;99778.59;;;6.66;100.00
46876;BME280;32866;50.160;14.768;2024-03-22T03:50:13;99806.03;;;6.90;100.00
46876;BME280;32866;50.160;14.768;2024-03-22T03:52:39;99772.44;;;6.59;100.00
46876;BME280;32866;50.160;14.768;2024-03-22T03:55:05;99808.88;;;6.76;100.00
46876;BME280;32866;50.160;14.768;2024-03-22T03:57:31;99757.03;;;6.38;100.00
46876;BME280;32866;50.160;14.768;2024-03-22T03:59:57;99804.59;;;6.75;100.00
46876;BME280;32866;50.160;14.768;2024-03-22T04:02:23;99813.97;;;6.74;100.00
46876;BME280;32866;50.160;14.768;2024-03-22T04:04:52;99811.25;;;6.70;100.00
46876;BME280;32866;50.160;14.768;2024-03-22T04:07:20;99809.72;;;6.69;100.00
46876;BME280;32866;50.160;14.768;2024-03-22T04:09:46;99804.38;;;6.51;100.00
46876;BME280;32866;50.160;14.768;2024-03-22T04:12:12;99801.16;;;6.63;100.00
46876;BME280;32866;50.160;14.768;2024-03-22T04:14:38;99789.56;;;6.56;100.00
46876;BME280;32866;50.160;14.768;2024-03-22T04:17:04;99798.84;;;6.65;100.00
46876;BME280;32866;50.160;14.768;2024-03-22T04:19:30;99752.34;;;6.38;100.00
46876;BME280;32866;50.160;14.768;2024-03-22T04:21:56;99761.19;;;6.53;100.00
46876;BME280;32866;50.160;14.768;2024-03-22T04:24:22;99786.22;;;6.86;100.00
46876;BME280;32866;50.160;14.768;2024-03-22T04:26:48;99792.78;;;6.92;100.00
46876;BME280;32866;50.160;14.768;2024-03-22T04:29:14;99719.63;;;6.49;100.00
46876;BME280;32866;50.160;14.768;2024-03-22T04:31:40;99726.16;;;6.55;100.00
46876;BME280;32866;50.160;14.768;2024-03-22T04:34:06;99779.53;;;6.94;100.00
46876;BME280;32866;50.160;14.768;2024-03-22T04:36:33;99775.69;;;6.88;100.00
46876;BME280;32866;50.160;14.768;2024-03-22T04:38:59;99779.16;;;6.92;100.00
46876;BME280;32866;50.160;14.768;2024-03-22T04:41:25;99790.91;;;6.82;100.00
46876;BME280;32866;50.160;14.768;2024-03-22T04:43:51;99758.78;;;6.62;100.00
46876;BME280;32866;50.160;14.768;2024-03-22T04:46:17;99757.97;;;6.69;100.00
46876;BME280;32866;50.160;14.768;2024-03-22T04:48:43;99741.41;;;6.49;100.00
46876;BME280;32866;50.160;14.768;2024-03-22T04:51:09;99745.28;;;6.48;100.00
46876;BME280;32866;50.160;14.768;2024-03-22T04:53:35;99795.84;;;6.98;100.00
46876;BME280;32866;50.160;14.768;2024-03-22T04:56:01;99789.19;;;7.02;100.00
46876;BME280;32866;50.160;14.768;2024-03-22T04:58:28;99749.78;;;6.69;100.00
46876;BME280;32866;50.160;14.768;2024-03-22T05:00:58;99782.94;;;7.02;100.00
46876;BME280;32866;50.160;14.768;2024-03-22T05:03:24;99732.34;;;6.59;100.00
46876;BME280;32866;50.160;14.768;2024-03-22T05:05:50;99760.22;;;6.78;100.00
46876;BME280;32866;50.160;14.768;2024-03-22T05:08:16;99730.69;;;6.73;100.00
46876;BME280;32866;50.160;14.768;2024-03-22T05:10:43;99781.41;;;7.01;100.00
46876;BME280;32866;50.160;14.768;2024-03-22T05:13:09;99788.00;;;7.03;100.00
46876;BME280;32866;50.160;14.768;2024-03-22T05:15:35;99787.63;;;7.01;100.00
46876;BME280;32866;50.160;14.768;2024-03-22T05:18:01;99755.56;;;6.75;100.00
46876;BME280;32866;50.160;14.768;2024-03-22T05:20:27;99795.38;;;7.06;100.00
46876;BME280;32866;50.160;14.768;2024-03-22T05:22:53;99754.44;;;6.68;100.00
46876;BME280;32866;50.160;14.768;2024-03-22T05:25:19;99794.19;;;7.08;100.00
46876;BME280;32866;50.160;14.768;2024-03-22T05:27:45;99792.97;;;7.16;100.00
46876;BME280;32866;50.160;14.768;2024-03-22T05:30:12;99796.84;;;7.15;100.00
46876;BME280;32866;50.160;14.768;2024-03-22T05:32:39;99794.09;;;7.18;100.00
46876;BME280;32866;50.160;14.768;2024-03-22T05:35:06;99728.72;;;6.73;100.00
46876;BME280;32866;50.160;14.768;2024-03-22T05:37:33;99796.72;;;7.29;100.00
46876;BME280;32866;50.160;14.768;2024-03-22T05:40:00;99764.22;;;7.08;100.00
46876;BME280;32866;50.160;14.768;2024-03-22T05:42:26;99755.72;;;6.98;100.00
46876;BME280;32866;50.160;14.768;2024-03-22T05:44:52;99798.19;;;7.37;100.00
46876;BME280;32866;50.160;14.768;2024-03-22T05:47:19;99789.56;;;7.42;100.00
46876;BME280;32866;50.160;14.768;2024-03-22T05:49:45;99796.50;;;7.47;100.00
46876;BME280;32866;50.160;14.768;2024-03-22T05:52:11;99787.66;;;7.39;100.00
46876;BME280;32866;50.160;14.768;2024-03-22T05:54:37;99786.66;;;7.57;100.00
46876;BME280;32866;50.160;14.768;2024-03-22T05:57:04;99785.09;;;7.59;100.00
46876;BME280;32866;50.160;14.768;2024-03-22T05:59:31;99776.84;;;7.63;100.00
46876;BME280;32866;50.160;14.768;2024-03-22T06:01:57;99781.50;;;7.66;100.00
46876;BME280;32866;50.160;14.768;2024-03-22T06:04:23;99718.13;;;7.24;100.00
46876;BME280;32866;50.160;14.768;2024-03-22T06:06:49;99761.31;;;7.60;100.00
46876;BME280;32866;50.160;14.768;2024-03-22T06:09:15;99781.25;;;7.84;100.00
46876;BME280;32866;50.160;14.768;2024-03-22T06:11:50;99748.13;;;7.55;100.00
46876;BME280;32866;50.160;14.768;2024-03-22T06:14:17;99797.63;;;7.88;100.00
46876;BME280;32866;50.160;14.768;2024-03-22T06:16:43;99716.25;;;7.48;100.00
46876;BME280;32866;50.160;14.768;2024-03-22T06:19:09;99780.22;;;8.05;100.00
46876;BME280;32866;50.160;14.768;2024-03-22T06:21:35;99733.41;;;7.79;100.00
46876;BME280;32866;50.160;14.768;2024-03-22T06:24:01;99744.38;;;8.03;100.00
46876;BME280;32866;50.160;14.768;2024-03-22T06:26:27;99748.28;;;8.02;100.00
46876;BME280;32866;50.160;14.768;2024-03-22T06:28:53;99777.44;;;8.36;100.00
46876;BME280;32866;50.160;14.768;2024-03-22T06:31:19;99720.75;;;7.93;100.00
46876;BME280;32866;50.160;14.768;2024-03-22T06:33:45;99780.22;;;8.32;100.00
46876;BME280;32866;50.160;14.768;2024-03-22T06:36:11;99774.22;;;8.45;100.00
46876;BME280;32866;50.160;14.768;2024-03-22T06:38:37;99762.34;;;8.55;100.00
46876;BME280;32866;50.160;14.768;2024-03-22T06:41:03;99773.56;;;8.61;100.00
46876;BME280;32866;50.160;14.768;2024-03-22T06:43:30;99769.47;;;8.72;100.00
46876;BME280;32866;50.160;14.768;2024-03-22T06:45:56;99738.19;;;8.53;100.00
46876;BME280;32866;50.160;14.768;2024-03-22T06:48:21;99739.31;;;8.56;100.00
46876;BME280;32866;50.160;14.768;2024-03-22T06:50:48;99770.72;;;9.15;100.00
46876;BME280;32866;50.160;14.768;2024-03-22T06:53:14;99768.00;;;9.75;100.00
46876;BME280;32866;50.160;14.768;2024-03-22T06:55:40;99733.31;;;10.21;100.00
46876;BME280;32866;50.160;14.768;2024-03-22T06:58:06;99702.09;;;10.19;100.00
46876;BME280;32866;50.160;14.768;2024-03-22T07:00:32;99754.75;;;11.22;100.00
46876;BME280;32866;50.160;14.768;2024-03-22T07:03:02;99749.44;;;11.99;100.00
46876;BME280;32866;50.160;14.768;2024-03-22T07:05:28;99719.38;;;12.69;100.00
46876;BME280;32866;50.160;14.768;2024-03-22T07:07:55;99735.78;;;12.94;100.00
46876;BME280;32866;50.160;14.768;2024-03-22T07:10:23;99739.41;;;12.56;100.00
46876;BME280;32866;50.160;14.768;2024-03-22T07:12:54;99752.59;;;12.96;100.00
46876;BME280;32866;50.160;14.768;2024-03-22T07:15:23;99726.13;;;11.91;100.00
46876;BME280;32866;50.160;14.768;2024-03-22T07:17:49;99742.00;;;11.15;100.00
46876;BME280;32866;50.160;14.768;2024-03-22T07:20:15;99760.63;;;11.49;100.00
46876;BME280;32866;50.160;14.768;2024-03-22T07:22:44;99765.84;;;12.15;100.00
46876;BME280;32866;50.160;14.768;2024-03-22T07:25:11;99761.50;;;13.35;100.00
46876;BME280;32866;50.160;14.768;2024-03-22T07:27:37;99730.66;;;12.36;100.00
46876;BME280;32866;50.160;14.768;2024-03-22T07:30:03;99762.28;;;12.53;100.00
46876;BME280;32866;50.160;14.768;2024-03-22T07:32:30;99732.75;;;12.19;100.00
46876;BME280;32866;50.160;14.768;2024-03-22T07:34:57;99741.13;;;13.11;100.00
46876;BME280;32866;50.160;14.768;2024-03-22T07:37:23;99751.19;;;13.71;100.00
46876;BME280;32866;50.160;14.768;2024-03-22T07:39:49;99742.84;;;13.17;100.00
46876;BME280;32866;50.160;14.768;2024-03-22T07:44:51;99744.88;;;13.70;100.00
46876;BME280;32866;50.160;14.768;2024-03-22T07:47:17;99745.72;;;14.12;100.00
46876;BME280;32866;50.160;14.768;2024-03-22T07:49:43;99748.91;;;13.79;100.00
46876;BME280;32866;50.160;14.768;2024-03-22T07:52:09;99689.38;;;13.72;100.00
46876;BME280;32866;50.160;14.768;2024-03-22T07:54:35;99724.66;;;16.90;100.00
46876;BME280;32866;50.160;14.768;2024-03-22T07:57:01;99737.72;;;21.14;58.40
46876;BME280;32866;50.160;14.768;2024-03-22T07:59:28;99705.56;;;20.42;57.43
46876;BME280;32866;50.160;14.768;2024-03-22T08:01:54;99682.03;;;17.12;63.30
46876;BME280;32866;50.160;14.768;2024-03-22T08:04:20;99696.09;;;16.11;69.02
46876;BME280;32866;50.160;14.768;2024-03-22T08:06:46;99678.28;;;16.85;68.86
46876;BME280;32866;50.160;14.768;2024-03-22T08:09:12;99685.34;;;20.04;56.67
46876;BME280;32866;50.160;14.768;2024-03-22T08:11:38;99691.28;;;22.52;47.29
46876;BME280;32866;50.160;14.768;2024-03-22T08:14:04;99673.69;;;23.77;42.44
46876;BME280;32866;50.160;14.768;2024-03-22T08:16:30;99726.09;;;22.98;43.38
46876;BME280;32866;50.160;14.768;2024-03-22T08:18:56;99723.91;;;24.87;39.57
46876;BME280;32866;50.160;14.768;2024-03-22T08:21:23;99713.16;;;24.91;40.14
46876;BME280;32866;50.160;14.768;2024-03-22T08:23:51;99704.25;;;25.44;38.80
46876;BME280;32866;50.160;14.768;2024-03-22T08:26:17;99709.25;;;26.77;36.00
46876;BME280;32866;50.160;14.768;2024-03-22T08:28:45;99697.94;;;24.23;37.15
46876;BME280;32866;50.160;14.768;2024-03-22T08:31:11;99698.38;;;23.01;41.61
46876;BME280;32866;50.160;14.768;2024-03-22T08:33:37;99693.78;;;24.30;39.15
46876;BME280;32866;50.160;14.768;2024-03-22T08:36:03;99651.78;;;22.84;39.37
46876;BME280;32866;50.160;14.768;2024-03-22T08:38:29;99688.38;;;25.79;37.06
46876;BME280;32866;50.160;14.768;2024-03-22T08:40:55;99670.31;;;27.79;34.36
46876;BME280;32866;50.160;14.768;2024-03-22T08:43:21;99684.56;;;28.38;31.30
46876;BME280;32866;50.160;14.768;2024-03-22T08:45:48;99685.28;;;25.17;35.34
46876;BME280;32866;50.160;14.768;2024-03-22T08:48:14;99689.63;;;22.74;40.28
46876;BME280;32866;50.160;14.768;2024-03-22T08:50:42;99682.97;;;22.18;40.25
46876;BME280;32866;50.160;14.768;2024-03-22T08:53:08;99631.47;;;22.31;40.05
46876;BME280;32866;50.160;14.768;2024-03-22T08:55:34;99669.75;;;24.16;38.26
46876;BME280;32866;50.160;14.768;2024-03-22T08:58:00;99677.84;;;23.40;38.55
46876;BME280;32866;50.160;14.768;2024-03-22T09:00:26;99663.50;;;22.71;39.62
46876;BME280;32866;50.160;14.768;2024-03-22T09:02:52;99619.50;;;23.80;38.06
46876;BME280;32866;50.160;14.768;2024-03-22T09:05:18;99658.34;;;23.89;38.00
46876;BME280;32866;50.160;14.768;2024-03-22T09:07:44;99657.66;;;26.00;35.06
46876;BME280;32866;50.160;14.768;2024-03-22T09:10:11;99635.09;;;26.05;34.33
46876;BME280;32866;50.160;14.768;2024-03-22T09:12:37;99600.13;;;25.02;35.25
46876;BME280;32866;50.160;14.768;2024-03-22T09:15:03;99622.00;;;21.64;40.48
46876;BME280;32866;50.160;14.768;2024-03-22T09:17:29;99614.31;;;20.02;42.57
46876;BME280;32866;50.160;14.768;2024-03-22T09:19:55;99588.13;;;20.26;44.37
46876;BME280;32866;50.160;14.768;2024-03-22T09:22:21;99628.94;;;20.52;43.17
46876;BME280;32866;50.160;14.768;2024-03-22T09:24:47;99627.06;;;21.60;41.00
46876;BME280;32866;50.160;14.768;2024-03-22T09:27:13;99606.03;;;21.64;41.11
46876;BME280;32866;50.160;14.768;2024-03-22T09:29:39;99622.59;;;22.15;40.38
46876;BME280;32866;50.160;14.768;2024-03-22T09:32:05;99633.66;;;21.34;40.87
46876;BME280;32866;50.160;14.768;2024-03-22T09:34:31;99603.69;;;20.67;41.95
46876;BME280;32866;50.160;14.768;2024-03-22T09:36:57;99567.94;;;20.48;42.63
46876;BME280;32866;50.160;14.768;2024-03-22T09:39:23;99616.72;;;19.78;43.46
46876;BME280;32866;50.160;14.768;2024-03-22T09:41:51;99593.34;;;19.26;45.07
46876;BME280;32866;50.160;14.768;2024-03-22T09:44:20;99619.13;;;19.64;45.10
46876;BME280;32866;50.160;14.768;2024-03-22T09:46:50;99594.81;;;18.69;45.23
46876;BME280;32866;50.160;14.768;2024-03-22T09:49:16;99582.09;;;18.36;46.75
46876;BME280;32866;50.160;14.768;2024-03-22T09:51:43;99600.63;;;18.92;45.68
46876;BME280;32866;50.160;14.768;2024-03-22T09:54:09;99606.88;;;18.20;48.32
46876;BME280;32866;50.160;14.768;2024-03-22T09:56:40;99592.94;;;18.14;50.01
46876;BME280;32866;50.160;14.768;2024-03-22T09:59:08;99592.22;;;18.40;49.53
46876;BME280;32866;50.160;14.768;2024-03-22T10:01:34;99599.66;;;18.07;51.65
46876;BME280;32866;50.160;14.768;2024-03-22T10:04:01;99595.63;;;17.37;50.89
46876;BME280;32866;50.160;14.768;2024-03-22T10:06:29;99594.59;;;16.90;53.60
46876;BME280;32866;50.160;14.768;2024-03-22T10:08:58;99594.50;;;16.99;55.39
46876;BME280;32866;50.160;14.768;2024-03-22T10:11:28;99581.72;;;16.87;54.51
46876;BME280;32866;50.160;14.768;2024-03-22T10:13:54;99564.38;;;16.47;55.37
46876;BME280;32866;50.160;14.768;2024-03-22T10:16:21;99580.53;;;16.79;54.34
46876;BME280;32866;50.160;14.768;2024-03-22T10:18:48;99581.16;;;16.98;53.90
46876;BME280;32866;50.160;14.768;2024-03-22T10:21:18;99577.97;;;17.35;54.09
46876;BME280;32866;50.160;14.768;2024-03-22T10:23:44;99570.06;;;16.83;54.31
46876;BME280;32866;50.160;14.768;2024-03-22T10:26:12;99561.03;;;17.33;53.63
46876;BME280;32866;50.160;14.768;2024-03-22T10:28:45;99539.41;;;17.31;52.02
46876;BME280;32866;50.160;14.768;2024-03-22T10:31:14;99557.38;;;17.56;54.08
46876;BME280;32866;50.160;14.768;2024-03-22T10:33:41;99517.47;;;16.83;53.18
46876;BME280;32866;50.160;14.768;2024-03-22T10:36:07;99561.44;;;17.40;54.21
46876;BME280;32866;50.160;14.768;2024-03-22T10:38:36;99561.75;;;17.63;52.83
46876;BME280;32866;50.160;14.768;2024-03-22T10:41:03;99556.03;;;17.67;50.53
46876;BME280;32866;50.160;14.768;2024-03-22T10:43:31;99547.78;;;17.37;51.08
46876;BME280;32866;50.160;14.768;2024-03-22T10:46:00;99556.03;;;16.86;52.78
46876;BME280;32866;50.160;14.768;2024-03-22T10:48:29;99550.31;;;17.05;53.03
46876;BME280;32866;50.160;14.768;2024-03-22T10:50:59;99530.06;;;17.14;52.71
46876;BME280;32866;50.160;14.768;2024-03-22T10:53:27;99537.50;;;16.63;54.77
46876;BME280;32866;50.160;14.768;2024-03-22T10:55:55;99546.59;;;16.93;54.52
46876;BME280;32866;50.160;14.768;2024-03-22T10:58:23;99537.63;;;16.98;53.85
46876;BME280;32866;50.160;14.768;2024-03-22T11:00:54;99532.38;;;17.51;52.51
46876;BME280;32866;50.160;14.768;2024-03-22T11:03:22;99526.88;;;17.21;52.58
46876;BME280;32866;50.160;14.768;2024-03-22T11:05:56;99523.09;;;17.74;51.31
46876;BME280;32866;50.160;14.768;2024-03-22T11:08:24;99505.94;;;17.70;52.21
46876;BME280;32866;50.160;14.768;2024-03-22T11:10:51;99454.75;;;17.66;51.42
46876;BME280;32866;50.160;14.768;2024-03-22T11:13:17;99509.13;;;17.84;50.10
46876;BME280;32866;50.160;14.768;2024-03-22T11:15:47;99501.25;;;17.97;52.09
46876;BME280;32866;50.160;14.768;2024-03-22T11:18:13;99466.16;;;18.14;49.58
46876;BME280;32866;50.160;14.768;2024-03-22T11:20:39;99498.25;;;18.73;49.15
46876;BME280;32866;50.160;14.768;2024-03-22T11:23:05;99500.38;;;18.84;50.24
46876;BME280;32866;50.160;14.768;2024-03-22T11:25:32;99442.88;;;18.90;48.29
46876;BME280;32866;50.160;14.768;2024-03-22T11:27:59;99491.34;;;18.95;44.98
46876;BME280;32866;50.160;14.768;2024-03-22T11:30:28;99479.81;;;18.76;42.87
46876;BME280;32866;50.160;14.768;2024-03-22T11:32:54;99489.59;;;18.66;43.84
46876;BME280;32866;50.160;14.768;2024-03-22T11:35:20;99487.66;;;19.04;44.11
46876;BME280;32866;50.160;14.768;2024-03-22T11:37:46;99475.44;;;18.11;44.97
46876;BME280;32866;50.160;14.768;2024-03-22T11:40:12;99471.38;;;18.33;46.27
46876;BME280;32866;50.160;14.768;2024-03-22T11:42:38;99467.53;;;19.20;45.15
46876;BME280;32866;50.160;14.768;2024-03-22T11:45:07;99474.59;;;19.64;44.09
46876;BME280;32866;50.160;14.768;2024-03-22T11:47:34;99453.81;;;20.20;42.52
46876;BME280;32866;50.160;14.768;2024-03-22T11:50:01;99461.78;;;22.18;39.71
46876;BME280;32866;50.160;14.768;2024-03-22T11:52:27;99456.00;;;23.56;38.16
46876;BME280;32866;50.160;14.768;2024-03-22T11:54:53;99454.28;;;23.09;37.30
46876;BME280;32866;50.160;14.768;2024-03-22T11:57:23;99451.66;;;22.56;38.40
46876;BME280;32866;50.160;14.768;2024-03-22T11:59:50;99444.59;;;21.61;39.50
46876;BME280;32866;50.160;14.768;2024-03-22T12:02:17;99443.25;;;20.69;42.60
46876;BME280;32866;50.160;14.768;2024-03-22T12:04:45;99437.78;;;19.75;41.38
46876;BME280;32866;50.160;14.768;2024-03-22T12:07:16;99431.56;;;19.00;42.82
46876;BME280;32866;50.160;14.768;2024-03-22T12:09:43;99380.91;;;18.09;44.28
46876;BME280;32866;50.160;14.768;2024-03-22T12:12:12;99421.03;;;18.14;43.56
46876;BME280;32866;50.160;14.768;2024-03-22T12:14:39;99420.66;;;18.27;41.69
46876;BME280;32866;50.160;14.768;2024-03-22T12:17:05;99408.97;;;18.17;40.87
46876;BME280;32866;50.160;14.768;2024-03-22T12:19:32;99381.88;;;17.80;40.59
46876;BME280;32866;50.160;14.768;2024-03-22T12:21:59;99404.03;;;17.80;40.38
46876;BME280;32866;50.160;14.768;2024-03-22T12:24:26;99402.25;;;17.56;40.44
46876;BME280;32866;50.160;14.768;2024-03-22T12:26:52;99397.16;;;17.75;42.53
46876;BME280;32866;50.160;14.768;2024-03-22T12:29:19;99397.81;;;18.11;41.03
46876;BME280;32866;50.160;14.768;2024-03-22T12:31:46;99382.47;;;18.16;40.22
46876;BME280;32866;50.160;14.768;2024-03-22T12:34:13;99383.88;;;18.32;40.17
46876;BME280;32866;50.160;14.768;2024-03-22T12:36:39;99367.25;;;18.32;41.08
46876;BME280;32866;50.160;14.768;2024-03-22T12:39:05;99391.25;;;18.41;43.61
46876;BME280;32866;50.160;14.768;2024-03-22T12:41:32;99373.59;;;18.38;43.54
46876;BME280;32866;50.160;14.768;2024-03-22T12:43:59;99383.03;;;18.52;43.49
46876;BME280;32866;50.160;14.768;2024-03-22T12:46:26;99371.72;;;18.56;43.95
46876;BME280;32866;50.160;14.768;2024-03-22T12:48:53;99366.91;;;18.88;44.05